createdAt,value
2023-02-25T00:03:13.157Z,1.90
2023-02-25T00:08:16.815Z,2.03
2023-02-25T00:13:20.778Z,1.67
2023-02-25T00:18:27.929Z,1.98
2023-02-25T00:28:35.955Z,2.58
2023-02-25T00:33:42.701Z,2.05
2023-02-25T00:38:48.569Z,1.70
2023-02-25T00:43:54.788Z,1.80
2023-02-25T00:48:59.472Z,2.47
2023-02-25T00:54:03.110Z,2.30
2023-02-25T00:59:06.545Z,1.90
2023-02-25T01:04:10.257Z,2.22
2023-02-25T01:09:14.406Z,1.88
2023-02-25T01:14:23.494Z,1.95
2023-02-25T01:19:27.885Z,1.80
2023-02-25T01:24:32.953Z,2.40
2023-02-25T01:29:41.760Z,1.40
2023-02-25T01:34:46.088Z,1.77
2023-02-25T01:39:49.482Z,1.88
2023-02-25T01:45:19.670Z,1.73
2023-02-25T01:50:27.297Z,1.70
2023-02-25T01:55:31.404Z,1.67
2023-02-25T02:00:34.538Z,1.75
2023-02-25T02:05:50.558Z,1.58
2023-02-25T02:10:56.522Z,1.73
2023-02-25T02:16:06.106Z,1.30
2023-02-25T02:21:22.553Z,1.70
2023-02-25T02:26:45.286Z,2.00
2023-02-25T02:32:09.062Z,1.50
2023-02-25T02:37:30.517Z,1.52
2023-02-25T02:42:58.771Z,2.22
2023-02-25T02:48:15.390Z,1.63
2023-02-25T02:53:33.819Z,1.73
2023-02-25T02:58:47.344Z,1.70
2023-02-25T03:04:03.835Z,1.60
2023-02-25T03:09:18.854Z,1.60
2023-02-25T03:14:23.182Z,2.72
2023-02-25T03:19:32.985Z,2.38
2023-02-25T03:24:43.138Z,4.40
2023-02-25T03:29:47.290Z,2.67
2023-02-25T03:34:57.760Z,1.73
2023-02-25T03:43:57.110Z,1.42
2023-02-25T03:49:04.087Z,1.60
2023-02-25T03:54:08.377Z,1.50
2023-02-25T03:59:14.130Z,1.60
2023-02-25T04:04:18.082Z,1.25
2023-02-25T04:09:22.002Z,2.00
2023-02-25T04:14:26.140Z,1.40
2023-02-25T04:19:30.311Z,1.10
2023-02-25T04:24:34.727Z,1.27
2023-02-25T04:29:37.933Z,1.35
2023-02-25T04:34:42.132Z,1.70
2023-02-25T04:39:45.337Z,1.58
2023-02-25T04:44:49.203Z,1.13
2023-02-25T04:49:53.463Z,1.80
2023-02-25T04:54:57.464Z,0.95
2023-02-25T05:00:01.488Z,1.58
2023-02-25T05:05:05.337Z,1.58
2023-02-25T05:10:11.143Z,1.25
2023-02-25T05:15:15.222Z,1.25
2023-02-25T05:20:18.569Z,1.38
2023-02-25T05:25:22.472Z,1.30
2023-02-25T05:30:26.218Z,1.17
2023-02-25T05:35:31.745Z,1.30
2023-02-25T05:40:36.516Z,1.58
2023-02-25T05:45:40.257Z,1.20
2023-02-25T05:50:43.973Z,1.20
2023-02-25T05:55:48.128Z,1.45
2023-02-25T06:00:51.373Z,1.20
2023-02-25T06:05:54.732Z,1.40
2023-02-25T06:11:00.843Z,1.42
2023-02-25T06:16:05.412Z,1.80
2023-02-25T06:21:10.745Z,1.52
2023-02-25T06:26:15.051Z,2.05
2023-02-25T06:31:21.975Z,1.73
2023-02-25T06:36:25.459Z,1.67
2023-02-25T06:41:29.052Z,1.98
2023-02-25T06:46:32.634Z,1.90
2023-02-25T06:51:36.748Z,1.75
2023-02-25T06:56:40.741Z,2.25
2023-02-25T07:01:44.270Z,2.25
2023-02-25T07:06:48.093Z,2.55
2023-02-25T07:11:52.770Z,1.67
2023-02-25T07:16:56.153Z,1.88
2023-02-25T07:21:59.288Z,2.22
2023-02-25T07:27:03.043Z,1.95
2023-02-25T07:32:09.432Z,1.88
2023-02-25T07:37:13.312Z,2.28
2023-02-25T07:42:17.095Z,3.30
2023-02-25T07:47:24.066Z,1.77
2023-02-25T07:52:27.131Z,2.65
2023-02-25T07:57:30.354Z,4.18
2023-02-25T08:02:34.365Z,2.20
2023-02-25T08:07:38.003Z,5.88
2023-02-25T08:12:41.552Z,2.90
2023-02-25T08:17:45.274Z,2.80
2023-02-25T08:22:49.410Z,2.28
2023-02-25T08:27:53.322Z,4.20
2023-02-25T08:32:57.729Z,6.43
2023-02-25T08:38:00.827Z,4.25
2023-02-25T08:43:04.327Z,5.00
2023-02-25T08:48:07.591Z,2.00
2023-02-25T08:53:12.281Z,2.10
2023-02-25T08:58:16.325Z,1.92
2023-02-25T09:03:19.775Z,2.05
2023-02-25T09:08:23.235Z,1.92
2023-02-25T09:13:26.971Z,2.00
2023-02-25T09:18:31.578Z,1.98
2023-02-25T09:23:35.497Z,2.38
2023-02-25T09:28:38.799Z,3.03
2023-02-25T09:33:43.254Z,2.55
2023-02-25T09:38:48.302Z,2.65
2023-02-25T09:44:30.459Z,3.03
2023-02-25T09:49:38.232Z,2.22
2023-02-25T09:54:47.613Z,3.55
2023-02-25T09:59:54.104Z,2.90
2023-02-25T10:10:38.296Z,2.15
2023-02-25T10:15:56.448Z,4.95
2023-02-25T10:21:09.870Z,2.72
2023-02-25T10:26:41.940Z,5.25
2023-02-25T10:31:46.118Z,4.35
2023-02-25T10:36:59.001Z,3.10
2023-02-25T10:42:02.819Z,3.65
2023-02-25T10:47:08.121Z,2.80
2023-02-25T10:52:19.716Z,5.47
2023-02-25T10:57:29.524Z,2.67
2023-02-25T11:02:41.295Z,2.42
2023-02-25T11:07:48.084Z,2.03
2023-02-25T11:12:58.268Z,2.25
2023-02-25T11:18:26.319Z,2.58
2023-02-25T11:23:40.255Z,2.40
2023-02-25T11:28:49.113Z,2.20
2023-02-25T11:33:59.659Z,2.88
2023-02-25T11:39:21.418Z,3.05
2023-02-25T11:44:40.370Z,1.92
2023-02-25T11:50:24.266Z,2.15
2023-02-25T11:55:39.876Z,2.25
2023-02-25T12:00:52.244Z,3.13
2023-02-25T12:06:28.522Z,1.80
2023-02-25T12:12:42.554Z,2.27
2023-02-25T12:18:23.278Z,2.30
2023-02-25T12:23:39.165Z,1.98
2023-02-25T12:29:10.316Z,2.10
2023-02-25T12:34:23.663Z,2.00
2023-02-25T12:39:47.074Z,2.25
2023-02-25T12:44:52.654Z,2.40
2023-02-25T12:50:01.762Z,1.92
2023-02-25T12:55:19.429Z,2.10
2023-02-25T13:01:00.705Z,1.92
2023-02-25T13:06:36.193Z,4.22
2023-02-25T13:12:10.479Z,3.30
2023-02-25T13:17:48.428Z,7.32
2023-02-25T13:23:22.144Z,3.47
2023-02-25T13:28:34.330Z,4.80
2023-02-25T13:33:49.058Z,3.63
2023-02-25T13:39:16.415Z,3.92
2023-02-25T13:44:32.706Z,5.18
2023-02-25T13:50:04.525Z,3.00
2023-02-25T13:55:43.884Z,8.52
2023-02-25T14:01:05.133Z,3.70
2023-02-25T14:06:32.039Z,2.42
2023-02-25T14:12:11.330Z,3.10
2023-02-25T14:17:36.780Z,2.50
2023-02-25T14:22:48.476Z,2.95
2023-02-25T14:28:25.147Z,2.33
2023-02-25T14:33:54.559Z,2.30
2023-02-25T14:39:00.747Z,2.13
2023-02-25T14:44:44.260Z,2.17
2023-02-25T14:49:59.627Z,2.38
2023-02-25T14:55:20.719Z,18.65
2023-02-25T15:01:04.738Z,2.67
2023-02-25T15:06:20.979Z,2.70
2023-02-25T15:11:42.504Z,2.63
2023-02-25T15:16:52.013Z,4.07
2023-02-25T15:22:23.102Z,2.78
2023-02-25T15:27:41.879Z,3.97
2023-02-25T15:32:58.586Z,2.97
2023-02-25T15:38:07.162Z,3.30
2023-02-25T15:43:11.327Z,3.65
2023-02-25T15:48:15.543Z,2.90
2023-02-25T15:53:21.503Z,2.85
2023-02-25T15:58:24.739Z,3.40
2023-02-25T16:03:36.544Z,2.40
2023-02-25T16:09:05.579Z,2.53
2023-02-25T16:14:31.715Z,2.50
2023-02-25T16:19:39.778Z,2.83
2023-02-25T16:24:48.810Z,2.90
2023-02-25T16:30:08.701Z,2.70
2023-02-25T16:35:25.289Z,2.30
2023-02-25T16:40:31.579Z,1.87
2023-02-25T16:45:58.073Z,3.57
2023-02-25T16:51:17.362Z,1.80
2023-02-25T16:56:25.836Z,2.67
2023-02-25T17:01:31.645Z,2.58
2023-02-25T17:06:35.721Z,2.40
2023-02-25T17:11:39.940Z,2.53
2023-02-25T17:16:44.366Z,2.80
2023-02-25T17:21:56.391Z,1.92
2023-02-25T17:27:01.496Z,2.85
2023-02-25T17:32:26.080Z,3.50
2023-02-25T17:37:31.338Z,2.47
2023-02-25T17:42:37.090Z,2.40
2023-02-25T17:47:44.173Z,2.10
2023-02-25T17:57:53.084Z,2.00
2023-02-25T18:03:19.599Z,1.92
2023-02-25T18:08:25.408Z,2.05
2023-02-25T18:13:36.931Z,2.00
2023-02-25T18:18:41.427Z,1.73
2023-02-25T18:23:45.321Z,1.90
2023-02-25T18:28:48.787Z,2.22
2023-02-25T18:33:52.951Z,2.65
2023-02-25T18:39:01.314Z,2.22
2023-02-25T18:44:05.014Z,3.38
2023-02-25T18:49:08.618Z,2.47
2023-02-25T18:54:16.410Z,1.70
2023-02-25T18:59:20.334Z,2.35
2023-02-25T19:04:23.744Z,10.20
2023-02-25T19:09:27.123Z,5.00
2023-02-25T19:14:30.477Z,8.85
2023-02-25T19:19:33.941Z,2.47
2023-02-25T19:24:37.102Z,2.85
2023-02-25T19:29:40.651Z,2.53
2023-02-25T19:34:44.780Z,3.00
2023-02-25T19:39:48.698Z,2.88
2023-02-25T19:44:52.068Z,2.70
2023-02-25T19:49:55.499Z,3.25
2023-02-25T19:54:58.604Z,3.10
2023-02-25T20:00:02.040Z,4.40
2023-02-25T20:05:15.578Z,3.95
2023-02-25T20:10:19.533Z,5.50
2023-02-25T20:15:22.623Z,3.58
2023-02-25T20:20:25.813Z,4.30
2023-02-25T20:25:29.338Z,4.88
2023-02-25T20:30:32.347Z,4.13
2023-02-25T20:35:35.560Z,4.43
2023-02-25T20:40:38.605Z,3.80
2023-02-25T20:45:41.949Z,5.22
2023-02-25T20:50:45.225Z,5.00
2023-02-25T20:55:48.459Z,6.00
2023-02-25T21:00:51.397Z,4.97
2023-02-25T21:05:54.707Z,6.22
2023-02-25T21:10:59.086Z,5.22
2023-02-25T21:16:04.989Z,7.28
2023-02-25T21:21:10.468Z,6.60
2023-02-25T21:26:14.261Z,8.45
2023-02-25T21:31:18.648Z,9.60
2023-02-25T21:36:21.832Z,8.60
2023-02-25T21:41:25.476Z,8.88
2023-02-25T21:46:29.374Z,10.68
2023-02-25T21:51:33.029Z,9.25
2023-02-25T21:56:36.823Z,10.88
2023-02-25T22:01:41.913Z,11.30
2023-02-25T22:06:47.262Z,12.60
2023-02-25T22:11:50.295Z,9.93
2023-02-25T22:16:53.273Z,9.15
2023-02-25T22:21:56.241Z,10.20
2023-02-25T22:26:59.546Z,9.02
2023-02-25T22:32:02.676Z,9.93
2023-02-25T22:37:06.171Z,9.45
2023-02-25T22:42:09.422Z,10.43
2023-02-25T22:47:13.038Z,9.95
2023-02-25T22:52:16.167Z,10.77
2023-02-25T22:57:19.372Z,8.38
2023-02-25T23:02:22.477Z,9.35
2023-02-25T23:07:25.532Z,8.73
2023-02-25T23:12:29.803Z,9.00
2023-02-25T23:17:33.232Z,9.60
2023-02-25T23:22:36.459Z,10.32
2023-02-25T23:27:40.045Z,12.20
2023-02-25T23:32:43.090Z,12.32
2023-02-25T23:37:47.415Z,15.88
2023-02-25T23:42:50.875Z,16.13
2023-02-25T23:47:54.140Z,21.70
2023-02-25T23:52:58.330Z,23.45
2023-02-25T23:58:01.384Z,22.70
